sensor_id;sensor_type;location;lat;lon;timestamp;P1;durP1;ratioP1;P2;durP2;ratioP2
49582;SDS011;36329;48.816;44.624;2024-02-14T00:01:12;13.1;;;7.5;;
49582;SDS011;36329;48.816;44.624;2024-02-14T00:04:15;12.1;;;7.4;;
49582;SDS011;36329;48.816;44.624;2024-02-14T00:07:17;13;;;7.2;;
49582;SDS011;36329;48.816;44.624;2024-02-14T00:10:19;12.8;;;6.9;;
49582;SDS011;36329;48.816;44.624;2024-02-14T00:13:21;12.5;;;6.7;;
49582;SDS011;36329;48.816;44.624;2024-02-14T00:16:23;9.4;;;6.1;;
49582;SDS011;36329;48.816;44.624;2024-02-14T00:19:26;10.8;;;6.7;;
49582;SDS011;36329;48.816;44.624;2024-02-14T00:22:28;11.4;;;6.6;;
49582;SDS011;36329;48.816;44.624;2024-02-14T00:25:30;11.8;;;6.7;;
49582;SDS011;36329;48.816;44.624;2024-02-14T00:28:35;10.7;;;6.8;;
49582;SDS011;36329;48.816;44.624;2024-02-14T00:31:37;8.7;;;6;;
49582;SDS011;36329;48.816;44.624;2024-02-14T00:34:55;9.3;;;6;;
49582;SDS011;36329;48.816;44.624;2024-02-14T00:37:57;9.5;;;6.5;;
49582;SDS011;36329;48.816;44.624;2024-02-14T00:40:59;9.7;;;6.4;;
49582;SDS011;36329;48.816;44.624;2024-02-14T00:44:01;10.4;;;6.2;;
49582;SDS011;36329;48.816;44.624;2024-02-14T00:47:03;9.6;;;6.3;;
49582;SDS011;36329;48.816;44.624;2024-02-14T00:50:06;10.5;;;6.7;;
49582;SDS011;36329;48.816;44.624;2024-02-14T00:53:09;10.7;;;6.7;;
49582;SDS011;36329;48.816;44.624;2024-02-14T00:56:12;10.2;;;6.7;;
49582;SDS011;36329;48.816;44.624;2024-02-14T00:59:14;12.1;;;6.4;;
49582;SDS011;36329;48.816;44.624;2024-02-14T01:02:16;10.7;;;6.5;;
49582;SDS011;36329;48.816;44.624;2024-02-14T01:05:18;11.7;;;6.5;;
49582;SDS011;36329;48.816;44.624;2024-02-14T01:08:20;10.1;;;6.2;;
49582;SDS011;36329;48.816;44.624;2024-02-14T01:11:22;10.7;;;6.2;;
49582;SDS011;36329;48.816;44.624;2024-02-14T01:14:25;10.6;;;6.7;;
49582;SDS011;36329;48.816;44.624;2024-02-14T01:17:27;11.6;;;6.7;;
49582;SDS011;36329;48.816;44.624;2024-02-14T01:20:29;12.3;;;7;;
49582;SDS011;36329;48.816;44.624;2024-02-14T01:23:31;11.7;;;7.2;;
49582;SDS011;36329;48.816;44.624;2024-02-14T01:26:33;10.6;;;6.6;;
49582;SDS011;36329;48.816;44.624;2024-02-14T01:29:35;11.8;;;6.9;;
49582;SDS011;36329;48.816;44.624;2024-02-14T01:32:37;11.3;;;6.8;;
49582;SDS011;36329;48.816;44.624;2024-02-14T01:35:40;12;;;6.8;;
49582;SDS011;36329;48.816;44.624;2024-02-14T01:38:42;11;;;6.6;;
49582;SDS011;36329;48.816;44.624;2024-02-14T01:41:44;11;;;6.3;;
49582;SDS011;36329;48.816;44.624;2024-02-14T01:44:47;9.8;;;5.8;;
49582;SDS011;36329;48.816;44.624;2024-02-14T01:47:49;11.4;;;6.2;;
49582;SDS011;36329;48.816;44.624;2024-02-14T01:50:52;9.2;;;5.5;;
49582;SDS011;36329;48.816;44.624;2024-02-14T01:53:54;9.3;;;5.5;;
49582;SDS011;36329;48.816;44.624;2024-02-14T01:56:57;9.5;;;5.1;;
49582;SDS011;36329;48.816;44.624;2024-02-14T02:00:01;8.6;;;4.9;;
49582;SDS011;36329;48.816;44.624;2024-02-14T02:03:10;8.6;;;5;;
49582;SDS011;36329;48.816;44.624;2024-02-14T02:06:12;8.7;;;5;;
49582;SDS011;36329;48.816;44.624;2024-02-14T02:09:14;8.7;;;4.8;;
49582;SDS011;36329;48.816;44.624;2024-02-14T02:12:16;9;;;4.6;;
49582;SDS011;36329;48.816;44.624;2024-02-14T02:15:33;8.1;;;4.7;;
49582;SDS011;36329;48.816;44.624;2024-02-14T02:18:51;8.4;;;4.2;;
49582;SDS011;36329;48.816;44.624;2024-02-14T02:22:08;6.7;;;3.6;;
49582;SDS011;36329;48.816;44.624;2024-02-14T02:25:25;7.5;;;3.9;;
49582;SDS011;36329;48.816;44.624;2024-02-14T02:28:43;6.6;;;3.8;;
49582;SDS011;36329;48.816;44.624;2024-02-14T02:31:46;6.2;;;3.8;;
49582;SDS011;36329;48.816;44.624;2024-02-14T02:34:48;9.8;;;4;;
49582;SDS011;36329;48.816;44.624;2024-02-14T02:37:50;8.7;;;4;;
49582;SDS011;36329;48.816;44.624;2024-02-14T02:41:07;6.8;;;4.1;;
49582;SDS011;36329;48.816;44.624;2024-02-14T02:44:25;6;;;3.6;;
49582;SDS011;36329;48.816;44.624;2024-02-14T02:47:42;6.7;;;3.8;;
49582;SDS011;36329;48.816;44.624;2024-02-14T02:50:59;8.2;;;4.1;;
49582;SDS011;36329;48.816;44.624;2024-02-14T02:54:16;8;;;3.8;;
49582;SDS011;36329;48.816;44.624;2024-02-14T02:57:34;6.6;;;4;;
49582;SDS011;36329;48.816;44.624;2024-02-14T03:00:36;8.9;;;4;;
49582;SDS011;36329;48.816;44.624;2024-02-14T03:03:53;8.1;;;4;;
49582;SDS011;36329;48.816;44.624;2024-02-14T03:07:10;6.4;;;3.8;;
49582;SDS011;36329;48.816;44.624;2024-02-14T03:10:28;6.2;;;3.5;;
49582;SDS011;36329;48.816;44.624;2024-02-14T03:13:45;8.7;;;3.4;;
49582;SDS011;36329;48.816;44.624;2024-02-14T03:17:02;6.5;;;3.7;;
49582;SDS011;36329;48.816;44.624;2024-02-14T03:20:05;5.9;;;3.5;;
49582;SDS011;36329;48.816;44.624;2024-02-14T03:23:09;6.2;;;3.4;;
49582;SDS011;36329;48.816;44.624;2024-02-14T03:26:12;9.4;;;3.8;;
49582;SDS011;36329;48.816;44.624;2024-02-14T03:29:14;7;;;3.1;;
49582;SDS011;36329;48.816;44.624;2024-02-14T03:32:17;5.6;;;3.3;;
49582;SDS011;36329;48.816;44.624;2024-02-14T03:35:20;6.9;;;3.3;;
49582;SDS011;36329;48.816;44.624;2024-02-14T03:38:26;6.7;;;3.7;;
49582;SDS011;36329;48.816;44.624;2024-02-14T03:41:28;5.6;;;3.2;;
49582;SDS011;36329;48.816;44.624;2024-02-14T03:44:30;5.1;;;3.2;;
49582;SDS011;36329;48.816;44.624;2024-02-14T03:47:32;8;;;3.5;;
49582;SDS011;36329;48.816;44.624;2024-02-14T03:50:34;10.2;;;3.4;;
49582;SDS011;36329;48.816;44.624;2024-02-14T03:53:36;5.9;;;3.1;;
49582;SDS011;36329;48.816;44.624;2024-02-14T03:56:38;7.9;;;3.5;;
49582;SDS011;36329;48.816;44.624;2024-02-14T03:59:40;6.7;;;3.4;;
49582;SDS011;36329;48.816;44.624;2024-02-14T04:02:42;7.7;;;3.4;;
49582;SDS011;36329;48.816;44.624;2024-02-14T04:05:45;6.3;;;3.4;;
49582;SDS011;36329;48.816;44.624;2024-02-14T04:08:47;6.3;;;3.3;;
49582;SDS011;36329;48.816;44.624;2024-02-14T04:11:49;7.1;;;3.6;;
49582;SDS011;36329;48.816;44.624;2024-02-14T04:14:51;6.1;;;3.4;;
49582;SDS011;36329;48.816;44.624;2024-02-14T04:17:54;6.2;;;3.5;;
49582;SDS011;36329;48.816;44.624;2024-02-14T04:20:56;6.8;;;3.8;;
49582;SDS011;36329;48.816;44.624;2024-02-14T04:23:58;6.9;;;3.6;;
49582;SDS011;36329;48.816;44.624;2024-02-14T04:27:00;8.2;;;4;;
49582;SDS011;36329;48.816;44.624;2024-02-14T04:30:02;6.8;;;4;;
49582;SDS011;36329;48.816;44.624;2024-02-14T04:33:10;8.3;;;4.3;;
49582;SDS011;36329;48.816;44.624;2024-02-14T04:36:13;8.9;;;4.8;;
49582;SDS011;36329;48.816;44.624;2024-02-14T04:39:16;10.3;;;4.8;;
49582;SDS011;36329;48.816;44.624;2024-02-14T04:42:18;11.4;;;5.1;;
49582;SDS011;36329;48.816;44.624;2024-02-14T04:45:20;10.9;;;5.9;;
49582;SDS011;36329;48.816;44.624;2024-02-14T04:48:37;10.1;;;5.6;;
49582;SDS011;36329;48.816;44.624;2024-02-14T04:51:39;14;;;7.1;;
49582;SDS011;36329;48.816;44.624;2024-02-14T04:54:42;15;;;7.3;;
49582;SDS011;36329;48.816;44.624;2024-02-14T04:57:44;17.6;;;9;;
49582;SDS011;36329;48.816;44.624;2024-02-14T05:00:46;19.4;;;9.3;;
49582;SDS011;36329;48.816;44.624;2024-02-14T05:03:48;17.7;;;8.5;;
49582;SDS011;36329;48.816;44.624;2024-02-14T05:06:50;19.3;;;9.3;;
49582;SDS011;36329;48.816;44.624;2024-02-14T05:09:53;20.4;;;9.9;;
49582;SDS011;36329;48.816;44.624;2024-02-14T05:12:55;19.8;;;9.7;;
49582;SDS011;36329;48.816;44.624;2024-02-14T05:15:57;20.4;;;10.3;;
49582;SDS011;36329;48.816;44.624;2024-02-14T05:19:04;22.8;;;11.3;;
49582;SDS011;36329;48.816;44.624;2024-02-14T05:22:06;23.2;;;11.9;;
49582;SDS011;36329;48.816;44.624;2024-02-14T05:25:08;21.3;;;11.2;;
49582;SDS011;36329;48.816;44.624;2024-02-14T05:28:26;21;;;11.4;;
49582;SDS011;36329;48.816;44.624;2024-02-14T05:31:42;20;;;10.4;;
49582;SDS011;36329;48.816;44.624;2024-02-14T05:34:47;21.9;;;10.5;;
49582;SDS011;36329;48.816;44.624;2024-02-14T05:37:49;18.7;;;9.7;;
49582;SDS011;36329;48.816;44.624;2024-02-14T05:40:51;18.2;;;9.2;;
49582;SDS011;36329;48.816;44.624;2024-02-14T05:43:53;17.3;;;9.7;;
49582;SDS011;36329;48.816;44.624;2024-02-14T05:46:55;15.7;;;8.9;;
49582;SDS011;36329;48.816;44.624;2024-02-14T05:49:57;16.7;;;8.8;;
49582;SDS011;36329;48.816;44.624;2024-02-14T05:52:59;13.5;;;7.6;;
49582;SDS011;36329;48.816;44.624;2024-02-14T05:56:02;16.2;;;8.1;;
49582;SDS011;36329;48.816;44.624;2024-02-14T05:59:04;15.1;;;7.9;;
49582;SDS011;36329;48.816;44.624;2024-02-14T06:02:07;14.9;;;7.9;;
49582;SDS011;36329;48.816;44.624;2024-02-14T06:05:09;14.3;;;8.2;;
49582;SDS011;36329;48.816;44.624;2024-02-14T06:08:12;13.3;;;7;;
49582;SDS011;36329;48.816;44.624;2024-02-14T06:11:14;11.3;;;6.2;;
49582;SDS011;36329;48.816;44.624;2024-02-14T06:14:16;10.5;;;6.1;;
49582;SDS011;36329;48.816;44.624;2024-02-14T06:17:19;12.6;;;6.2;;
49582;SDS011;36329;48.816;44.624;2024-02-14T06:20:21;11.9;;;6.3;;
49582;SDS011;36329;48.816;44.624;2024-02-14T06:23:23;12.6;;;6.6;;
49582;SDS011;36329;48.816;44.624;2024-02-14T06:26:25;10.8;;;6.1;;
49582;SDS011;36329;48.816;44.624;2024-02-14T06:29:27;12.4;;;6.3;;
49582;SDS011;36329;48.816;44.624;2024-02-14T06:32:29;10.3;;;5.8;;
49582;SDS011;36329;48.816;44.624;2024-02-14T06:35:32;13.7;;;6.8;;
49582;SDS011;36329;48.816;44.624;2024-02-14T06:38:34;12.9;;;6.5;;
49582;SDS011;36329;48.816;44.624;2024-02-14T06:41:36;13.2;;;6.4;;
49582;SDS011;36329;48.816;44.624;2024-02-14T06:44:38;11.4;;;6.4;;
49582;SDS011;36329;48.816;44.624;2024-02-14T06:47:41;11.3;;;6.5;;
49582;SDS011;36329;48.816;44.624;2024-02-14T06:50:43;14.2;;;6.7;;
49582;SDS011;36329;48.816;44.624;2024-02-14T06:53:45;12.7;;;6.6;;
49582;SDS011;36329;48.816;44.624;2024-02-14T06:56:47;13.7;;;7;;
49582;SDS011;36329;48.816;44.624;2024-02-14T06:59:49;12;;;6.4;;
49582;SDS011;36329;48.816;44.624;2024-02-14T07:02:51;12.4;;;6.8;;
49582;SDS011;36329;48.816;44.624;2024-02-14T07:05:53;14;;;7.5;;
49582;SDS011;36329;48.816;44.624;2024-02-14T07:08:55;12.8;;;6.7;;
49582;SDS011;36329;48.816;44.624;2024-02-14T07:11:57;15.2;;;7.4;;
49582;SDS011;36329;48.816;44.624;2024-02-14T07:15:00;13.8;;;6.8;;
49582;SDS011;36329;48.816;44.624;2024-02-14T07:18:02;13.5;;;7.1;;
49582;SDS011;36329;48.816;44.624;2024-02-14T07:21:04;14;;;7.1;;
49582;SDS011;36329;48.816;44.624;2024-02-14T07:24:06;11.6;;;6.6;;
49582;SDS011;36329;48.816;44.624;2024-02-14T07:27:09;14.9;;;7.6;;
49582;SDS011;36329;48.816;44.624;2024-02-14T07:30:11;12.2;;;6.8;;
49582;SDS011;36329;48.816;44.624;2024-02-14T07:33:14;12;;;7;;
49582;SDS011;36329;48.816;44.624;2024-02-14T07:36:16;12.5;;;6.6;;
49582;SDS011;36329;48.816;44.624;2024-02-14T07:39:19;10.4;;;6.1;;
49582;SDS011;36329;48.816;44.624;2024-02-14T07:42:21;11.8;;;7.3;;
49582;SDS011;36329;48.816;44.624;2024-02-14T07:45:23;13.6;;;7.5;;
49582;SDS011;36329;48.816;44.624;2024-02-14T07:48:25;14.1;;;7.3;;
49582;SDS011;36329;48.816;44.624;2024-02-14T07:51:27;12.6;;;7.1;;
49582;SDS011;36329;48.816;44.624;2024-02-14T07:54:29;11;;;6.3;;
49582;SDS011;36329;48.816;44.624;2024-02-14T07:57:32;14;;;7.2;;
49582;SDS011;36329;48.816;44.624;2024-02-14T08:00:34;12.2;;;6.6;;
49582;SDS011;36329;48.816;44.624;2024-02-14T08:03:36;11.9;;;6.5;;
49582;SDS011;36329;48.816;44.624;2024-02-14T08:06:38;12.7;;;7;;
49582;SDS011;36329;48.816;44.624;2024-02-14T08:09:40;11.8;;;7;;
49582;SDS011;36329;48.816;44.624;2024-02-14T08:12:42;14.7;;;6.8;;
49582;SDS011;36329;48.816;44.624;2024-02-14T08:15:45;11.6;;;6.1;;
49582;SDS011;36329;48.816;44.624;2024-02-14T08:18:47;11.8;;;6.9;;
49582;SDS011;36329;48.816;44.624;2024-02-14T08:21:49;12.9;;;7;;
49582;SDS011;36329;48.816;44.624;2024-02-14T08:24:51;12.8;;;6.9;;
49582;SDS011;36329;48.816;44.624;2024-02-14T08:27:53;12.9;;;7.2;;
49582;SDS011;36329;48.816;44.624;2024-02-14T08:30:55;13.6;;;7.2;;
49582;SDS011;36329;48.816;44.624;2024-02-14T08:33:57;13.3;;;6.9;;
49582;SDS011;36329;48.816;44.624;2024-02-14T08:36:59;12.3;;;6.9;;
49582;SDS011;36329;48.816;44.624;2024-02-14T08:40:03;11.1;;;6.3;;
49582;SDS011;36329;48.816;44.624;2024-02-14T08:43:07;11.9;;;6.6;;
49582;SDS011;36329;48.816;44.624;2024-02-14T08:46:09;11.4;;;6.9;;
49582;SDS011;36329;48.816;44.624;2024-02-14T08:49:12;12.5;;;6.7;;
49582;SDS011;36329;48.816;44.624;2024-02-14T08:52:14;13.9;;;7.4;;
49582;SDS011;36329;48.816;44.624;2024-02-14T08:55:16;12.1;;;7.1;;
49582;SDS011;36329;48.816;44.624;2024-02-14T08:58:21;12.8;;;6.8;;
49582;SDS011;36329;48.816;44.624;2024-02-14T09:01:23;11.4;;;6.5;;
49582;SDS011;36329;48.816;44.624;2024-02-14T09:04:25;10.2;;;6.5;;
49582;SDS011;36329;48.816;44.624;2024-02-14T09:07:27;13.1;;;7.7;;
49582;SDS011;36329;48.816;44.624;2024-02-14T09:10:30;11.3;;;6.6;;
49582;SDS011;36329;48.816;44.624;2024-02-14T09:13:32;12.9;;;7;;
49582;SDS011;36329;48.816;44.624;2024-02-14T09:16:34;12.1;;;6.7;;
49582;SDS011;36329;48.816;44.624;2024-02-14T09:19:36;10.8;;;6.6;;
49582;SDS011;36329;48.816;44.624;2024-02-14T09:22:38;12.5;;;7.1;;
49582;SDS011;36329;48.816;44.624;2024-02-14T09:25:41;11.8;;;6.8;;
49582;SDS011;36329;48.816;44.624;2024-02-14T09:28:43;11.3;;;6.6;;
49582;SDS011;36329;48.816;44.624;2024-02-14T09:31:45;12.5;;;6.5;;
49582;SDS011;36329;48.816;44.624;2024-02-14T09:34:48;13.3;;;7.4;;
49582;SDS011;36329;48.816;44.624;2024-02-14T09:37:50;12.3;;;7.7;;
49582;SDS011;36329;48.816;44.624;2024-02-14T09:40:53;12.6;;;7.5;;
49582;SDS011;36329;48.816;44.624;2024-02-14T09:43:55;13.4;;;7.6;;
49582;SDS011;36329;48.816;44.624;2024-02-14T09:46:57;12.7;;;7.4;;
49582;SDS011;36329;48.816;44.624;2024-02-14T09:50:02;13.8;;;7.7;;
49582;SDS011;36329;48.816;44.624;2024-02-14T09:53:06;12.5;;;7.5;;
49582;SDS011;36329;48.816;44.624;2024-02-14T09:56:09;13.9;;;7.3;;
49582;SDS011;36329;48.816;44.624;2024-02-14T09:59:12;11.9;;;7.4;;
49582;SDS011;36329;48.816;44.624;2024-02-14T10:02:16;15.1;;;7.3;;
49582;SDS011;36329;48.816;44.624;2024-02-14T10:05:18;11.4;;;6.9;;
49582;SDS011;36329;48.816;44.624;2024-02-14T10:08:20;10.5;;;6.6;;
49582;SDS011;36329;48.816;44.624;2024-02-14T10:11:23;11.2;;;6.4;;
49582;SDS011;36329;48.816;44.624;2024-02-14T10:14:25;12.2;;;7;;
49582;SDS011;36329;48.816;44.624;2024-02-14T10:17:28;11.1;;;6.6;;
49582;SDS011;36329;48.816;44.624;2024-02-14T10:20:30;11.3;;;6.5;;
49582;SDS011;36329;48.816;44.624;2024-02-14T10:23:32;10.8;;;6.5;;
49582;SDS011;36329;48.816;44.624;2024-02-14T10:26:34;10.8;;;6;;
49582;SDS011;36329;48.816;44.624;2024-02-14T10:29:37;9.6;;;5.8;;
49582;SDS011;36329;48.816;44.624;2024-02-14T10:32:39;10.4;;;5.8;;
49582;SDS011;36329;48.816;44.624;2024-02-14T10:35:42;13.1;;;6.5;;
49582;SDS011;36329;48.816;44.624;2024-02-14T10:38:45;10.7;;;6.2;;
49582;SDS011;36329;48.816;44.624;2024-02-14T10:41:48;13.3;;;7;;
49582;SDS011;36329;48.816;44.624;2024-02-14T10:44:51;9.8;;;5.6;;
49582;SDS011;36329;48.816;44.624;2024-02-14T10:47:53;11;;;6.2;;
49582;SDS011;36329;48.816;44.624;2024-02-14T10:50:58;11.4;;;6.1;;
49582;SDS011;36329;48.816;44.624;2024-02-14T10:54:03;9.8;;;5.8;;
49582;SDS011;36329;48.816;44.624;2024-02-14T10:57:08;12.3;;;6.4;;
49582;SDS011;36329;48.816;44.624;2024-02-14T11:00:11;11.5;;;6.3;;
49582;SDS011;36329;48.816;44.624;2024-02-14T11:03:17;10.8;;;6;;
49582;SDS011;36329;48.816;44.624;2024-02-14T11:06:19;12.2;;;6;;
49582;SDS011;36329;48.816;44.624;2024-02-14T11:09:22;11.2;;;6.1;;
49582;SDS011;36329;48.816;44.624;2024-02-14T11:12:33;11;;;6.2;;
49582;SDS011;36329;48.816;44.624;2024-02-14T11:15:36;10.1;;;6.3;;
49582;SDS011;36329;48.816;44.624;2024-02-14T11:18:38;12.9;;;6.7;;
49582;SDS011;36329;48.816;44.624;2024-02-14T11:21:40;10.8;;;6.4;;
49582;SDS011;36329;48.816;44.624;2024-02-14T11:24:45;11;;;6.5;;
49582;SDS011;36329;48.816;44.624;2024-02-14T11:27:47;11.7;;;7.1;;
49582;SDS011;36329;48.816;44.624;2024-02-14T11:30:49;10.3;;;6.3;;
49582;SDS011;36329;48.816;44.624;2024-02-14T11:33:52;10.8;;;6.3;;
49582;SDS011;36329;48.816;44.624;2024-02-14T11:36:54;9.7;;;6.4;;
49582;SDS011;36329;48.816;44.624;2024-02-14T11:39:56;12;;;6.5;;
49582;SDS011;36329;48.816;44.624;2024-02-14T11:42:58;12.5;;;6.2;;
49582;SDS011;36329;48.816;44.624;2024-02-14T11:46:00;10.3;;;6.2;;
49582;SDS011;36329;48.816;44.624;2024-02-14T11:49:03;11.6;;;7.1;;
49582;SDS011;36329;48.816;44.624;2024-02-14T11:52:09;10.7;;;6.2;;
49582;SDS011;36329;48.816;44.624;2024-02-14T11:55:13;10.2;;;6.2;;
49582;SDS011;36329;48.816;44.624;2024-02-14T11:58:20;9.6;;;5.9;;
49582;SDS011;36329;48.816;44.624;2024-02-14T12:01:22;10.4;;;6.4;;
49582;SDS011;36329;48.816;44.624;2024-02-14T12:04:25;10.2;;;6.2;;
49582;SDS011;36329;48.816;44.624;2024-02-14T12:07:27;11.8;;;6.8;;
49582;SDS011;36329;48.816;44.624;2024-02-14T12:10:31;13;;;7.5;;
49582;SDS011;36329;48.816;44.624;2024-02-14T12:13:33;11.9;;;6.8;;
49582;SDS011;36329;48.816;44.624;2024-02-14T12:16:36;12.4;;;7;;
49582;SDS011;36329;48.816;44.624;2024-02-14T12:19:39;11.5;;;6.3;;
49582;SDS011;36329;48.816;44.624;2024-02-14T12:22:41;9.6;;;6.3;;
49582;SDS011;36329;48.816;44.624;2024-02-14T12:25:44;8.4;;;5.2;;
49582;SDS011;36329;48.816;44.624;2024-02-14T12:28:46;11.7;;;6;;
49582;SDS011;36329;48.816;44.624;2024-02-14T12:31:49;10.9;;;6.2;;
49582;SDS011;36329;48.816;44.624;2024-02-14T12:34:51;11.5;;;6.1;;
49582;SDS011;36329;48.816;44.624;2024-02-14T12:37:53;9.8;;;5.7;;
49582;SDS011;36329;48.816;44.624;2024-02-14T12:40:55;10.9;;;5.9;;
49582;SDS011;36329;48.816;44.624;2024-02-14T12:43:57;9.7;;;6.2;;
49582;SDS011;36329;48.816;44.624;2024-02-14T12:47:00;9.4;;;5.5;;
49582;SDS011;36329;48.816;44.624;2024-02-14T12:50:02;8.1;;;5.1;;
49582;SDS011;36329;48.816;44.624;2024-02-14T12:53:06;9.2;;;5.4;;
49582;SDS011;36329;48.816;44.624;2024-02-14T12:56:08;10.9;;;5.2;;
49582;SDS011;36329;48.816;44.624;2024-02-14T12:59:14;8.2;;;5;;
49582;SDS011;36329;48.816;44.624;2024-02-14T13:02:20;8.4;;;4.9;;
49582;SDS011;36329;48.816;44.624;2024-02-14T13:05:22;10.9;;;5.6;;
49582;SDS011;36329;48.816;44.624;2024-02-14T13:08:24;9.2;;;5.4;;
49582;SDS011;36329;48.816;44.624;2024-02-14T13:11:26;10.1;;;6.2;;
49582;SDS011;36329;48.816;44.624;2024-02-14T13:14:28;9.2;;;5.6;;
49582;SDS011;36329;48.816;44.624;2024-02-14T13:17:30;10.3;;;6.1;;
49582;SDS011;36329;48.816;44.624;2024-02-14T13:20:33;10.2;;;6.1;;
49582;SDS011;36329;48.816;44.624;2024-02-14T13:23:35;9.9;;;6.6;;
49582;SDS011;36329;48.816;44.624;2024-02-14T13:26:37;9.2;;;5.9;;
49582;SDS011;36329;48.816;44.624;2024-02-14T13:29:39;10.5;;;5.9;;
49582;SDS011;36329;48.816;44.624;2024-02-14T13:32:41;8.9;;;5.8;;
49582;SDS011;36329;48.816;44.624;2024-02-14T13:35:43;10.4;;;5.8;;
49582;SDS011;36329;48.816;44.624;2024-02-14T13:38:45;10.6;;;6.2;;
49582;SDS011;36329;48.816;44.624;2024-02-14T13:41:47;10.1;;;6.2;;
49582;SDS011;36329;48.816;44.624;2024-02-14T13:44:49;10.4;;;5.6;;
49582;SDS011;36329;48.816;44.624;2024-02-14T13:47:52;10;;;5.6;;
49582;SDS011;36329;48.816;44.624;2024-02-14T13:51:07;9.4;;;5.9;;
49582;SDS011;36329;48.816;44.624;2024-02-14T13:54:09;8.6;;;5.5;;
49582;SDS011;36329;48.816;44.624;2024-02-14T13:57:11;9.6;;;5.5;;
49582;SDS011;36329;48.816;44.624;2024-02-14T14:00:13;9.4;;;5.7;;
49582;SDS011;36329;48.816;44.624;2024-02-14T14:03:16;10.5;;;5.6;;
49582;SDS011;36329;48.816;44.624;2024-02-14T14:06:18;8.3;;;5.2;;
49582;SDS011;36329;48.816;44.624;2024-02-14T14:09:21;9.6;;;6.3;;
49582;SDS011;36329;48.816;44.624;2024-02-14T14:12:23;10.2;;;5.9;;
49582;SDS011;36329;48.816;44.624;2024-02-14T14:15:25;9.3;;;5.8;;
49582;SDS011;36329;48.816;44.624;2024-02-14T14:18:27;10.8;;;6.2;;
49582;SDS011;36329;48.816;44.624;2024-02-14T14:21:29;12;;;5.8;;
49582;SDS011;36329;48.816;44.624;2024-02-14T14:24:31;9.5;;;5.5;;
49582;SDS011;36329;48.816;44.624;2024-02-14T14:27:33;8.5;;;5.3;;
49582;SDS011;36329;48.816;44.624;2024-02-14T14:30:36;9.9;;;5.3;;
49582;SDS011;36329;48.816;44.624;2024-02-14T14:33:38;9.9;;;5.4;;
49582;SDS011;36329;48.816;44.624;2024-02-14T14:36:40;11.1;;;5.5;;
49582;SDS011;36329;48.816;44.624;2024-02-14T14:39:42;11.6;;;5.7;;
49582;SDS011;36329;48.816;44.624;2024-02-14T14:42:45;8.7;;;5.2;;
49582;SDS011;36329;48.816;44.624;2024-02-14T14:45:47;8.2;;;5;;
49582;SDS011;36329;48.816;44.624;2024-02-14T14:48:49;9.7;;;5.1;;
49582;SDS011;36329;48.816;44.624;2024-02-14T14:51:52;9.3;;;5.6;;
49582;SDS011;36329;48.816;44.624;2024-02-14T14:54:55;8.6;;;4.8;;
49582;SDS011;36329;48.816;44.624;2024-02-14T14:57:57;9.9;;;5.6;;
49582;SDS011;36329;48.816;44.624;2024-02-14T15:01:00;13.7;;;7.8;;
49582;SDS011;36329;48.816;44.624;2024-02-14T15:04:02;12.1;;;5.9;;
49582;SDS011;36329;48.816;44.624;2024-02-14T15:07:05;11.8;;;7.5;;
49582;SDS011;36329;48.816;44.624;2024-02-14T15:10:07;11.2;;;5.5;;
49582;SDS011;36329;48.816;44.624;2024-02-14T15:13:10;7.3;;;4.5;;
49582;SDS011;36329;48.816;44.624;2024-02-14T15:16:12;8.2;;;5.1;;
49582;SDS011;36329;48.816;44.624;2024-02-14T15:19:15;10.1;;;5;;
49582;SDS011;36329;48.816;44.624;2024-02-14T15:22:17;7.8;;;4.8;;
49582;SDS011;36329;48.816;44.624;2024-02-14T15:25:19;8.7;;;5;;
49582;SDS011;36329;48.816;44.624;2024-02-14T15:28:21;9;;;5;;
49582;SDS011;36329;48.816;44.624;2024-02-14T15:31:24;7.4;;;4.9;;
49582;SDS011;36329;48.816;44.624;2024-02-14T15:34:26;8.8;;;5.1;;
49582;SDS011;36329;48.816;44.624;2024-02-14T15:37:28;6.7;;;4.4;;
49582;SDS011;36329;48.816;44.624;2024-02-14T15:40:30;7.5;;;4.8;;
49582;SDS011;36329;48.816;44.624;2024-02-14T15:43:32;9.2;;;4.9;;
49582;SDS011;36329;48.816;44.624;2024-02-14T15:46:34;7.8;;;5.2;;
49582;SDS011;36329;48.816;44.624;2024-02-14T15:49:36;8;;;5.3;;
49582;SDS011;36329;48.816;44.624;2024-02-14T15:52:40;7.5;;;4.9;;
49582;SDS011;36329;48.816;44.624;2024-02-14T15:55:42;7.7;;;4.6;;
49582;SDS011;36329;48.816;44.624;2024-02-14T15:58:44;7.4;;;4.6;;
49582;SDS011;36329;48.816;44.624;2024-02-14T16:01:46;8.3;;;4.3;;
49582;SDS011;36329;48.816;44.624;2024-02-14T16:04:48;7.7;;;4.3;;
49582;SDS011;36329;48.816;44.624;2024-02-14T16:07:51;7.6;;;5;;
49582;SDS011;36329;48.816;44.624;2024-02-14T16:10:53;7.4;;;4.6;;
49582;SDS011;36329;48.816;44.624;2024-02-14T16:13:55;9;;;6;;
49582;SDS011;36329;48.816;44.624;2024-02-14T16:16:57;11;;;5.9;;
49582;SDS011;36329;48.816;44.624;2024-02-14T16:19:59;9.1;;;4.9;;
49582;SDS011;36329;48.816;44.624;2024-02-14T16:23:01;8.5;;;4.7;;
49582;SDS011;36329;48.816;44.624;2024-02-14T16:26:03;6.5;;;4;;
49582;SDS011;36329;48.816;44.624;2024-02-14T16:29:06;7.1;;;4.1;;
49582;SDS011;36329;48.816;44.624;2024-02-14T16:32:08;7.4;;;4.1;;
49582;SDS011;36329;48.816;44.624;2024-02-14T16:35:10;6.9;;;3.9;;
49582;SDS011;36329;48.816;44.624;2024-02-14T16:38:13;6.8;;;3.5;;
49582;SDS011;36329;48.816;44.624;2024-02-14T16:41:15;5.7;;;3.3;;
49582;SDS011;36329;48.816;44.624;2024-02-14T16:44:17;5.1;;;3.2;;
49582;SDS011;36329;48.816;44.624;2024-02-14T16:47:19;4.8;;;3;;
49582;SDS011;36329;48.816;44.624;2024-02-14T16:50:21;6.8;;;3.4;;
49582;SDS011;36329;48.816;44.624;2024-02-14T16:53:23;6.3;;;3.4;;
49582;SDS011;36329;48.816;44.624;2024-02-14T16:56:26;5.4;;;3.3;;
49582;SDS011;36329;48.816;44.624;2024-02-14T16:59:28;6.4;;;3.2;;
49582;SDS011;36329;48.816;44.624;2024-02-14T17:02:30;6.1;;;3.1;;
49582;SDS011;36329;48.816;44.624;2024-02-14T17:05:33;5.6;;;2.9;;
49582;SDS011;36329;48.816;44.624;2024-02-14T17:08:35;5.7;;;3.5;;
49582;SDS011;36329;48.816;44.624;2024-02-14T17:11:37;8;;;3.6;;
49582;SDS011;36329;48.816;44.624;2024-02-14T17:14:39;8.6;;;3.7;;
49582;SDS011;36329;48.816;44.624;2024-02-14T17:17:41;6.1;;;3.6;;
49582;SDS011;36329;48.816;44.624;2024-02-14T17:20:43;5.6;;;3.6;;
49582;SDS011;36329;48.816;44.624;2024-02-14T17:23:46;7;;;3.6;;
49582;SDS011;36329;48.816;44.624;2024-02-14T17:26:48;6.5;;;3.4;;
49582;SDS011;36329;48.816;44.624;2024-02-14T17:29:50;5.2;;;3.1;;
49582;SDS011;36329;48.816;44.624;2024-02-14T17:32:52;6.4;;;3.4;;
49582;SDS011;36329;48.816;44.624;2024-02-14T17:35:54;6;;;3.5;;
49582;SDS011;36329;48.816;44.624;2024-02-14T17:38:57;6.9;;;4;;
49582;SDS011;36329;48.816;44.624;2024-02-14T17:41:59;6.3;;;3.6;;
49582;SDS011;36329;48.816;44.624;2024-02-14T17:45:01;6.8;;;3.8;;
49582;SDS011;36329;48.816;44.624;2024-02-14T17:48:06;6.5;;;4.1;;
49582;SDS011;36329;48.816;44.624;2024-02-14T17:51:08;6.6;;;3.9;;
49582;SDS011;36329;48.816;44.624;2024-02-14T17:54:10;6.1;;;3.7;;
49582;SDS011;36329;48.816;44.624;2024-02-14T17:57:13;7.1;;;4;;
49582;SDS011;36329;48.816;44.624;2024-02-14T18:00:16;6.6;;;3.5;;
49582;SDS011;36329;48.816;44.624;2024-02-14T18:03:18;5.6;;;3.6;;
49582;SDS011;36329;48.816;44.624;2024-02-14T18:06:20;5.9;;;3.4;;
49582;SDS011;36329;48.816;44.624;2024-02-14T18:09:22;6.1;;;3.7;;
49582;SDS011;36329;48.816;44.624;2024-02-14T18:12:25;6.1;;;3.7;;
49582;SDS011;36329;48.816;44.624;2024-02-14T18:15:27;7.2;;;3.7;;
49582;SDS011;36329;48.816;44.624;2024-02-14T18:18:29;8;;;3.9;;
49582;SDS011;36329;48.816;44.624;2024-02-14T18:21:31;7;;;3.9;;
49582;SDS011;36329;48.816;44.624;2024-02-14T18:24:33;7;;;4.3;;
49582;SDS011;36329;48.816;44.624;2024-02-14T18:27:36;6.8;;;4.1;;
49582;SDS011;36329;48.816;44.624;2024-02-14T18:30:38;8;;;4.7;;
49582;SDS011;36329;48.816;44.624;2024-02-14T18:33:40;7.6;;;4.5;;
49582;SDS011;36329;48.816;44.624;2024-02-14T18:36:42;8.3;;;4.5;;
49582;SDS011;36329;48.816;44.624;2024-02-14T18:39:45;7.7;;;4.4;;